sensor_id;sensor_type;location;lat;lon;timestamp;P1;durP1;ratioP1;P2;durP2;ratioP2
9188;SDS011;34313;50.780;6.084;2023-05-14T00:01:32;14.07;;;10.27;;
9188;SDS011;34313;50.780;6.084;2023-05-14T00:03:58;13.20;;;11.33;;
9188;SDS011;34313;50.780;6.084;2023-05-14T00:06:23;11.60;;;10.10;;
9188;SDS011;34313;50.780;6.084;2023-05-14T00:08:49;13.53;;;11.17;;
9188;SDS011;34313;50.780;6.084;2023-05-14T00:11:14;12.50;;;10.90;;
9188;SDS011;34313;50.780;6.084;2023-05-14T00:13:40;13.33;;;11.13;;
9188;SDS011;34313;50.780;6.084;2023-05-14T00:16:05;11.23;;;10.03;;
9188;SDS011;34313;50.780;6.084;2023-05-14T00:18:30;11.93;;;9.73;;
9188;SDS011;34313;50.780;6.084;2023-05-14T00:20:56;15.17;;;11.00;;
9188;SDS011;34313;50.780;6.084;2023-05-14T00:23:21;12.10;;;9.40;;
9188;SDS011;34313;50.780;6.084;2023-05-14T00:25:47;14.57;;;11.30;;
9188;SDS011;34313;50.780;6.084;2023-05-14T00:28:12;11.63;;;10.43;;
9188;SDS011;34313;50.780;6.084;2023-05-14T00:30:38;12.17;;;10.30;;
9188;SDS011;34313;50.780;6.084;2023-05-14T00:33:04;11.90;;;10.10;;
9188;SDS011;34313;50.780;6.084;2023-05-14T00:35:29;15.33;;;10.43;;
9188;SDS011;34313;50.780;6.084;2023-05-14T00:37:55;15.87;;;11.60;;
9188;SDS011;34313;50.780;6.084;2023-05-14T00:40:21;14.87;;;11.00;;
9188;SDS011;34313;50.780;6.084;2023-05-14T00:42:50;17.70;;;13.07;;
9188;SDS011;34313;50.780;6.084;2023-05-14T00:45:15;17.90;;;12.57;;
9188;SDS011;34313;50.780;6.084;2023-05-14T00:47:40;19.43;;;14.30;;
9188;SDS011;34313;50.780;6.084;2023-05-14T00:50:06;17.77;;;12.20;;
9188;SDS011;34313;50.780;6.084;2023-05-14T00:52:32;15.60;;;12.37;;
9188;SDS011;34313;50.780;6.084;2023-05-14T00:54:58;13.40;;;11.70;;
9188;SDS011;34313;50.780;6.084;2023-05-14T00:57:23;15.33;;;10.80;;
9188;SDS011;34313;50.780;6.084;2023-05-14T00:59:48;13.13;;;11.17;;
9188;SDS011;34313;50.780;6.084;2023-05-14T01:02:14;14.47;;;11.70;;
9188;SDS011;34313;50.780;6.084;2023-05-14T01:04:40;16.27;;;12.90;;
9188;SDS011;34313;50.780;6.084;2023-05-14T01:09:57;13.50;;;11.80;;
9188;SDS011;34313;50.780;6.084;2023-05-14T01:15:42;17.80;;;12.50;;
9188;SDS011;34313;50.780;6.084;2023-05-14T01:18:12;13.60;;;11.83;;
9188;SDS011;34313;50.780;6.084;2023-05-14T01:20:38;14.67;;;12.27;;
9188;SDS011;34313;50.780;6.084;2023-05-14T01:23:03;14.20;;;11.77;;
9188;SDS011;34313;50.780;6.084;2023-05-14T01:25:29;12.50;;;11.20;;
9188;SDS011;34313;50.780;6.084;2023-05-14T01:28:00;12.87;;;11.57;;
9188;SDS011;34313;50.780;6.084;2023-05-14T01:30:36;14.47;;;11.93;;
9188;SDS011;34313;50.780;6.084;2023-05-14T01:33:09;15.80;;;11.73;;
9188;SDS011;34313;50.780;6.084;2023-05-14T01:35:36;16.40;;;12.37;;
9188;SDS011;34313;50.780;6.084;2023-05-14T01:38:03;16.00;;;11.77;;
9188;SDS011;34313;50.780;6.084;2023-05-14T01:40:32;13.80;;;12.10;;
9188;SDS011;34313;50.780;6.084;2023-05-14T01:42:58;13.70;;;11.93;;
9188;SDS011;34313;50.780;6.084;2023-05-14T01:45:24;13.40;;;11.53;;
9188;SDS011;34313;50.780;6.084;2023-05-14T01:47:50;13.43;;;11.93;;
9188;SDS011;34313;50.780;6.084;2023-05-14T01:50:15;20.80;;;12.33;;
9188;SDS011;34313;50.780;6.084;2023-05-14T01:52:41;16.10;;;12.90;;
9188;SDS011;34313;50.780;6.084;2023-05-14T01:55:07;17.40;;;13.20;;
9188;SDS011;34313;50.780;6.084;2023-05-14T01:57:33;16.73;;;12.47;;
9188;SDS011;34313;50.780;6.084;2023-05-14T01:59:58;15.57;;;12.20;;
9188;SDS011;34313;50.780;6.084;2023-05-14T02:02:23;16.80;;;12.00;;
9188;SDS011;34313;50.780;6.084;2023-05-14T02:04:48;14.87;;;13.27;;
9188;SDS011;34313;50.780;6.084;2023-05-14T02:07:14;14.50;;;12.73;;
9188;SDS011;34313;50.780;6.084;2023-05-14T02:09:40;13.53;;;12.07;;
9188;SDS011;34313;50.780;6.084;2023-05-14T02:12:05;14.77;;;12.13;;
9188;SDS011;34313;50.780;6.084;2023-05-14T02:14:32;16.57;;;12.30;;
9188;SDS011;34313;50.780;6.084;2023-05-14T02:16:57;14.60;;;12.07;;
9188;SDS011;34313;50.780;6.084;2023-05-14T02:19:22;15.23;;;12.67;;
9188;SDS011;34313;50.780;6.084;2023-05-14T02:21:48;16.43;;;12.37;;
9188;SDS011;34313;50.780;6.084;2023-05-14T02:24:14;14.97;;;12.57;;
9188;SDS011;34313;50.780;6.084;2023-05-14T02:26:40;21.27;;;14.00;;
9188;SDS011;34313;50.780;6.084;2023-05-14T02:29:06;15.70;;;13.60;;
9188;SDS011;34313;50.780;6.084;2023-05-14T02:31:31;19.50;;;14.57;;
9188;SDS011;34313;50.780;6.084;2023-05-14T02:33:56;24.23;;;14.00;;
9188;SDS011;34313;50.780;6.084;2023-05-14T02:36:22;17.50;;;14.27;;
9188;SDS011;34313;50.780;6.084;2023-05-14T02:38:47;16.83;;;14.03;;
9188;SDS011;34313;50.780;6.084;2023-05-14T02:41:12;19.37;;;15.67;;
9188;SDS011;34313;50.780;6.084;2023-05-14T02:43:37;23.40;;;14.30;;
9188;SDS011;34313;50.780;6.084;2023-05-14T02:46:03;18.63;;;15.47;;
9188;SDS011;34313;50.780;6.084;2023-05-14T02:48:28;17.60;;;13.90;;
9188;SDS011;34313;50.780;6.084;2023-05-14T02:50:53;20.17;;;15.50;;
9188;SDS011;34313;50.780;6.084;2023-05-14T02:53:19;19.37;;;13.87;;
9188;SDS011;34313;50.780;6.084;2023-05-14T02:55:44;19.07;;;15.47;;
9188;SDS011;34313;50.780;6.084;2023-05-14T02:58:09;17.20;;;14.57;;
9188;SDS011;34313;50.780;6.084;2023-05-14T03:00:35;21.80;;;16.37;;
9188;SDS011;34313;50.780;6.084;2023-05-14T03:03:00;18.33;;;15.07;;
9188;SDS011;34313;50.780;6.084;2023-05-14T03:05:26;18.67;;;15.83;;
9188;SDS011;34313;50.780;6.084;2023-05-14T03:07:51;17.53;;;14.53;;
9188;SDS011;34313;50.780;6.084;2023-05-14T03:10:17;24.53;;;15.63;;
9188;SDS011;34313;50.780;6.084;2023-05-14T03:12:43;15.60;;;13.90;;
9188;SDS011;34313;50.780;6.084;2023-05-14T03:15:09;22.77;;;16.10;;
9188;SDS011;34313;50.780;6.084;2023-05-14T03:17:35;19.50;;;15.40;;
9188;SDS011;34313;50.780;6.084;2023-05-14T03:20:00;18.17;;;15.27;;
9188;SDS011;34313;50.780;6.084;2023-05-14T03:22:25;17.57;;;15.53;;
9188;SDS011;34313;50.780;6.084;2023-05-14T03:24:51;21.17;;;15.40;;
9188;SDS011;34313;50.780;6.084;2023-05-14T03:27:16;18.93;;;15.00;;
9188;SDS011;34313;50.780;6.084;2023-05-14T03:29:41;18.23;;;15.20;;
9188;SDS011;34313;50.780;6.084;2023-05-14T03:32:07;18.60;;;15.13;;
9188;SDS011;34313;50.780;6.084;2023-05-14T03:34:32;18.80;;;14.33;;
9188;SDS011;34313;50.780;6.084;2023-05-14T03:36:57;17.27;;;14.30;;
9188;SDS011;34313;50.780;6.084;2023-05-14T03:39:22;21.20;;;16.20;;
9188;SDS011;34313;50.780;6.084;2023-05-14T03:41:48;21.07;;;16.27;;
9188;SDS011;34313;50.780;6.084;2023-05-14T03:44:13;18.90;;;16.27;;
9188;SDS011;34313;50.780;6.084;2023-05-14T03:46:38;18.53;;;15.40;;
9188;SDS011;34313;50.780;6.084;2023-05-14T03:49:04;18.13;;;15.90;;
9188;SDS011;34313;50.780;6.084;2023-05-14T03:51:30;21.73;;;16.80;;
9188;SDS011;34313;50.780;6.084;2023-05-14T03:53:56;20.67;;;15.73;;
9188;SDS011;34313;50.780;6.084;2023-05-14T03:56:22;24.90;;;17.57;;
9188;SDS011;34313;50.780;6.084;2023-05-14T03:58:47;22.73;;;18.90;;
9188;SDS011;34313;50.780;6.084;2023-05-14T04:01:13;22.00;;;18.73;;
9188;SDS011;34313;50.780;6.084;2023-05-14T04:03:38;22.43;;;17.37;;
9188;SDS011;34313;50.780;6.084;2023-05-14T04:06:03;23.90;;;17.77;;
9188;SDS011;34313;50.780;6.084;2023-05-14T04:08:29;22.87;;;17.33;;
9188;SDS011;34313;50.780;6.084;2023-05-14T04:10:55;25.97;;;19.40;;
9188;SDS011;34313;50.780;6.084;2023-05-14T04:13:20;22.63;;;19.00;;
9188;SDS011;34313;50.780;6.084;2023-05-14T04:15:45;25.77;;;20.27;;
9188;SDS011;34313;50.780;6.084;2023-05-14T04:18:11;25.57;;;18.80;;
9188;SDS011;34313;50.780;6.084;2023-05-14T04:20:36;24.50;;;19.97;;
9188;SDS011;34313;50.780;6.084;2023-05-14T04:23:01;24.77;;;20.20;;
9188;SDS011;34313;50.780;6.084;2023-05-14T04:25:27;25.20;;;19.03;;
9188;SDS011;34313;50.780;6.084;2023-05-14T04:27:52;22.60;;;18.87;;
9188;SDS011;34313;50.780;6.084;2023-05-14T04:30:17;23.33;;;19.10;;
9188;SDS011;34313;50.780;6.084;2023-05-14T04:32:43;23.13;;;18.90;;
9188;SDS011;34313;50.780;6.084;2023-05-14T04:35:08;24.43;;;18.30;;
9188;SDS011;34313;50.780;6.084;2023-05-14T04:37:34;21.63;;;18.50;;
9188;SDS011;34313;50.780;6.084;2023-05-14T04:40:00;23.57;;;16.60;;
9188;SDS011;34313;50.780;6.084;2023-05-14T04:42:25;20.67;;;16.80;;
9188;SDS011;34313;50.780;6.084;2023-05-14T04:44:50;18.73;;;15.40;;
9188;SDS011;34313;50.780;6.084;2023-05-14T04:47:16;16.80;;;15.00;;
9188;SDS011;34313;50.780;6.084;2023-05-14T04:49:41;18.00;;;15.40;;
9188;SDS011;34313;50.780;6.084;2023-05-14T04:52:07;20.37;;;14.17;;
9188;SDS011;34313;50.780;6.084;2023-05-14T04:54:32;19.93;;;14.53;;
9188;SDS011;34313;50.780;6.084;2023-05-14T04:56:58;14.17;;;12.67;;
9188;SDS011;34313;50.780;6.084;2023-05-14T04:59:27;15.07;;;12.93;;
9188;SDS011;34313;50.780;6.084;2023-05-14T05:01:52;16.00;;;13.50;;
9188;SDS011;34313;50.780;6.084;2023-05-14T05:04:18;16.50;;;12.13;;
9188;SDS011;34313;50.780;6.084;2023-05-14T05:06:43;10.70;;;8.37;;
9188;SDS011;34313;50.780;6.084;2023-05-14T05:09:08;8.77;;;6.40;;
9188;SDS011;34313;50.780;6.084;2023-05-14T05:11:34;7.60;;;6.40;;
9188;SDS011;34313;50.780;6.084;2023-05-14T05:13:59;7.73;;;5.37;;
9188;SDS011;34313;50.780;6.084;2023-05-14T05:16:24;4.80;;;4.27;;
9188;SDS011;34313;50.780;6.084;2023-05-14T05:18:50;5.57;;;4.83;;
9188;SDS011;34313;50.780;6.084;2023-05-14T05:21:15;5.30;;;4.00;;
9188;SDS011;34313;50.780;6.084;2023-05-14T05:23:40;4.60;;;4.10;;
9188;SDS011;34313;50.780;6.084;2023-05-14T05:26:06;4.50;;;4.00;;
9188;SDS011;34313;50.780;6.084;2023-05-14T05:28:31;5.77;;;4.57;;
9188;SDS011;34313;50.780;6.084;2023-05-14T05:30:56;4.20;;;3.80;;
9188;SDS011;34313;50.780;6.084;2023-05-14T05:33:21;4.13;;;3.73;;
9188;SDS011;34313;50.780;6.084;2023-05-14T05:35:47;3.88;;;3.58;;
9188;SDS011;34313;50.780;6.084;2023-05-14T05:38:14;4.43;;;4.03;;
9188;SDS011;34313;50.780;6.084;2023-05-14T05:40:42;7.90;;;4.55;;
9188;SDS011;34313;50.780;6.084;2023-05-14T05:43:07;4.13;;;3.83;;
9188;SDS011;34313;50.780;6.084;2023-05-14T05:45:32;4.30;;;3.90;;
9188;SDS011;34313;50.780;6.084;2023-05-14T05:47:58;5.07;;;4.57;;
9188;SDS011;34313;50.780;6.084;2023-05-14T05:50:23;5.72;;;4.93;;
9188;SDS011;34313;50.780;6.084;2023-05-14T05:52:50;5.15;;;4.65;;
9188;SDS011;34313;50.780;6.084;2023-05-14T05:55:16;9.43;;;5.45;;
9188;SDS011;34313;50.780;6.084;2023-05-14T05:57:41;6.43;;;5.45;;
9188;SDS011;34313;50.780;6.084;2023-05-14T06:00:07;6.72;;;5.25;;
9188;SDS011;34313;50.780;6.084;2023-05-14T06:02:42;10.23;;;5.45;;
9188;SDS011;34313;50.780;6.084;2023-05-14T06:05:08;10.10;;;8.55;;
9188;SDS011;34313;50.780;6.084;2023-05-14T06:07:34;10.95;;;8.27;;
9188;SDS011;34313;50.780;6.084;2023-05-14T06:09:59;9.40;;;7.23;;
9188;SDS011;34313;50.780;6.084;2023-05-14T06:12:25;9.17;;;8.20;;
9188;SDS011;34313;50.780;6.084;2023-05-14T06:14:53;10.93;;;9.73;;
9188;SDS011;34313;50.780;6.084;2023-05-14T06:17:22;13.93;;;10.03;;
9188;SDS011;34313;50.780;6.084;2023-05-14T06:19:48;13.47;;;10.30;;
9188;SDS011;34313;50.780;6.084;2023-05-14T06:22:13;11.87;;;9.67;;
9188;SDS011;34313;50.780;6.084;2023-05-14T06:24:39;12.67;;;10.63;;
9188;SDS011;34313;50.780;6.084;2023-05-14T06:27:04;16.40;;;11.53;;
9188;SDS011;34313;50.780;6.084;2023-05-14T06:29:30;14.40;;;12.57;;
9188;SDS011;34313;50.780;6.084;2023-05-14T06:32:01;14.90;;;12.97;;
9188;SDS011;34313;50.780;6.084;2023-05-14T06:34:27;15.23;;;11.83;;
9188;SDS011;34313;50.780;6.084;2023-05-14T06:36:53;15.93;;;12.93;;
9188;SDS011;34313;50.780;6.084;2023-05-14T06:39:18;14.80;;;11.70;;
9188;SDS011;34313;50.780;6.084;2023-05-14T06:41:44;17.33;;;13.13;;
9188;SDS011;34313;50.780;6.084;2023-05-14T06:44:10;13.93;;;11.50;;
9188;SDS011;34313;50.780;6.084;2023-05-14T06:46:35;15.00;;;12.67;;
9188;SDS011;34313;50.780;6.084;2023-05-14T06:49:01;16.40;;;11.70;;
9188;SDS011;34313;50.780;6.084;2023-05-14T06:51:26;16.57;;;11.90;;
9188;SDS011;34313;50.780;6.084;2023-05-14T06:53:51;14.57;;;12.57;;
9188;SDS011;34313;50.780;6.084;2023-05-14T06:56:18;15.30;;;12.90;;
9188;SDS011;34313;50.780;6.084;2023-05-14T06:58:43;15.47;;;12.67;;
9188;SDS011;34313;50.780;6.084;2023-05-14T07:01:08;15.90;;;13.50;;
9188;SDS011;34313;50.780;6.084;2023-05-14T07:03:34;21.27;;;15.20;;
9188;SDS011;34313;50.780;6.084;2023-05-14T07:06:00;20.60;;;17.30;;
9188;SDS011;34313;50.780;6.084;2023-05-14T07:08:25;23.27;;;18.27;;
9188;SDS011;34313;50.780;6.084;2023-05-14T07:10:50;28.63;;;20.73;;
9188;SDS011;34313;50.780;6.084;2023-05-14T07:13:15;23.40;;;19.50;;
9188;SDS011;34313;50.780;6.084;2023-05-14T07:15:41;26.60;;;20.63;;
9188;SDS011;34313;50.780;6.084;2023-05-14T07:18:06;27.30;;;20.17;;
9188;SDS011;34313;50.780;6.084;2023-05-14T07:20:31;23.50;;;19.07;;
9188;SDS011;34313;50.780;6.084;2023-05-14T07:22:57;22.30;;;18.27;;
9188;SDS011;34313;50.780;6.084;2023-05-14T07:25:23;22.83;;;17.03;;
9188;SDS011;34313;50.780;6.084;2023-05-14T07:27:48;23.33;;;18.53;;
9188;SDS011;34313;50.780;6.084;2023-05-14T07:30:13;25.07;;;20.10;;
9188;SDS011;34313;50.780;6.084;2023-05-14T07:32:39;20.83;;;18.57;;
9188;SDS011;34313;50.780;6.084;2023-05-14T07:35:04;20.50;;;17.27;;
9188;SDS011;34313;50.780;6.084;2023-05-14T07:37:30;25.57;;;18.50;;
9188;SDS011;34313;50.780;6.084;2023-05-14T07:39:56;23.40;;;19.30;;
9188;SDS011;34313;50.780;6.084;2023-05-14T07:42:21;26.73;;;20.20;;
9188;SDS011;34313;50.780;6.084;2023-05-14T07:44:46;25.00;;;21.30;;
9188;SDS011;34313;50.780;6.084;2023-05-14T07:47:12;27.43;;;20.63;;
9188;SDS011;34313;50.780;6.084;2023-05-14T07:49:37;36.00;;;26.33;;
9188;SDS011;34313;50.780;6.084;2023-05-14T07:52:02;26.63;;;22.23;;
9188;SDS011;34313;50.780;6.084;2023-05-14T07:54:28;25.77;;;21.93;;
9188;SDS011;34313;50.780;6.084;2023-05-14T07:56:53;26.30;;;22.70;;
9188;SDS011;34313;50.780;6.084;2023-05-14T07:59:18;24.30;;;19.27;;
9188;SDS011;34313;50.780;6.084;2023-05-14T08:01:44;27.30;;;22.73;;
9188;SDS011;34313;50.780;6.084;2023-05-14T08:04:09;25.60;;;21.30;;
9188;SDS011;34313;50.780;6.084;2023-05-14T08:06:36;28.23;;;22.90;;
9188;SDS011;34313;50.780;6.084;2023-05-14T08:09:01;25.47;;;22.27;;
9188;SDS011;34313;50.780;6.084;2023-05-14T08:11:29;31.63;;;25.83;;
9188;SDS011;34313;50.780;6.084;2023-05-14T08:13:54;26.97;;;22.30;;
9188;SDS011;34313;50.780;6.084;2023-05-14T08:16:20;27.03;;;22.07;;
9188;SDS011;34313;50.780;6.084;2023-05-14T08:18:46;24.30;;;20.25;;
9188;SDS011;34313;50.780;6.084;2023-05-14T08:21:11;26.00;;;23.25;;
9188;SDS011;34313;50.780;6.084;2023-05-14T08:23:36;26.15;;;23.17;;
9188;SDS011;34313;50.780;6.084;2023-05-14T08:26:01;23.48;;;18.88;;
9188;SDS011;34313;50.780;6.084;2023-05-14T08:28:27;24.95;;;21.95;;
9188;SDS011;34313;50.780;6.084;2023-05-14T08:30:52;23.52;;;20.38;;
9188;SDS011;34313;50.780;6.084;2023-05-14T08:33:17;27.25;;;24.35;;
9188;SDS011;34313;50.780;6.084;2023-05-14T08:35:43;25.70;;;23.05;;
9188;SDS011;34313;50.780;6.084;2023-05-14T08:38:08;25.00;;;22.50;;
9188;SDS011;34313;50.780;6.084;2023-05-14T08:40:33;23.55;;;21.13;;
9188;SDS011;34313;50.780;6.084;2023-05-14T08:42:59;30.42;;;27.38;;
9188;SDS011;34313;50.780;6.084;2023-05-14T08:45:27;29.83;;;26.13;;
9188;SDS011;34313;50.780;6.084;2023-05-14T08:47:57;27.98;;;25.17;;
9188;SDS011;34313;50.780;6.084;2023-05-14T08:50:24;26.95;;;24.10;;
9188;SDS011;34313;50.780;6.084;2023-05-14T08:52:50;28.08;;;25.13;;
9188;SDS011;34313;50.780;6.084;2023-05-14T08:55:16;30.55;;;27.50;;
9188;SDS011;34313;50.780;6.084;2023-05-14T08:57:42;27.55;;;24.65;;
9188;SDS011;34313;50.780;6.084;2023-05-14T09:00:08;27.73;;;24.30;;
9188;SDS011;34313;50.780;6.084;2023-05-14T09:02:38;30.40;;;27.40;;
9188;SDS011;34313;50.780;6.084;2023-05-14T09:05:04;33.13;;;26.48;;
9188;SDS011;34313;50.780;6.084;2023-05-14T09:07:31;30.42;;;27.00;;
9188;SDS011;34313;50.780;6.084;2023-05-14T09:09:57;29.40;;;25.92;;
9188;SDS011;34313;50.780;6.084;2023-05-14T09:12:23;29.80;;;25.85;;
9188;SDS011;34313;50.780;6.084;2023-05-14T09:14:49;30.90;;;25.23;;
9188;SDS011;34313;50.780;6.084;2023-05-14T09:17:15;30.90;;;26.60;;
9188;SDS011;34313;50.780;6.084;2023-05-14T09:19:41;29.27;;;26.23;;
9188;SDS011;34313;50.780;6.084;2023-05-14T09:22:11;34.33;;;30.73;;
9188;SDS011;34313;50.780;6.084;2023-05-14T09:24:37;39.87;;;32.57;;
9188;SDS011;34313;50.780;6.084;2023-05-14T09:27:03;37.80;;;32.13;;
9188;SDS011;34313;50.780;6.084;2023-05-14T09:29:29;38.03;;;31.87;;
9188;SDS011;34313;50.780;6.084;2023-05-14T09:31:56;40.07;;;31.73;;
9188;SDS011;34313;50.780;6.084;2023-05-14T09:34:32;36.43;;;31.60;;
9188;SDS011;34313;50.780;6.084;2023-05-14T09:37:06;34.60;;;29.47;;
9188;SDS011;34313;50.780;6.084;2023-05-14T09:39:33;41.40;;;34.90;;
9188;SDS011;34313;50.780;6.084;2023-05-14T09:42:00;37.97;;;29.80;;
9188;SDS011;34313;50.780;6.084;2023-05-14T09:44:26;33.80;;;28.67;;
9188;SDS011;34313;50.780;6.084;2023-05-14T09:46:52;39.53;;;30.50;;
9188;SDS011;34313;50.780;6.084;2023-05-14T09:49:18;41.23;;;32.67;;
9188;SDS011;34313;50.780;6.084;2023-05-14T09:51:43;44.83;;;34.53;;
9188;SDS011;34313;50.780;6.084;2023-05-14T09:54:09;38.77;;;31.83;;
9188;SDS011;34313;50.780;6.084;2023-05-14T09:56:35;39.90;;;32.53;;
9188;SDS011;34313;50.780;6.084;2023-05-14T09:59:01;42.63;;;33.00;;
9188;SDS011;34313;50.780;6.084;2023-05-14T10:01:28;47.10;;;30.83;;
9188;SDS011;34313;50.780;6.084;2023-05-14T10:03:54;43.90;;;35.60;;
9188;SDS011;34313;50.780;6.084;2023-05-14T10:06:21;40.80;;;33.97;;
9188;SDS011;34313;50.780;6.084;2023-05-14T10:08:51;40.93;;;32.00;;
9188;SDS011;34313;50.780;6.084;2023-05-14T10:11:21;35.33;;;29.00;;
9188;SDS011;34313;50.780;6.084;2023-05-14T10:13:54;36.90;;;30.90;;
9188;SDS011;34313;50.780;6.084;2023-05-14T10:16:26;32.97;;;28.63;;
9188;SDS011;34313;50.780;6.084;2023-05-14T10:18:55;40.63;;;33.50;;
9188;SDS011;34313;50.780;6.084;2023-05-14T10:21:30;39.10;;;31.50;;
9188;SDS011;34313;50.780;6.084;2023-05-14T10:23:59;42.87;;;32.87;;
9188;SDS011;34313;50.780;6.084;2023-05-14T10:26:26;41.83;;;34.47;;
9188;SDS011;34313;50.780;6.084;2023-05-14T10:28:52;45.63;;;32.70;;
9188;SDS011;34313;50.780;6.084;2023-05-14T10:31:21;41.50;;;31.93;;
9188;SDS011;34313;50.780;6.084;2023-05-14T10:33:48;37.30;;;30.00;;
9188;SDS011;34313;50.780;6.084;2023-05-14T10:36:15;40.50;;;31.13;;
9188;SDS011;34313;50.780;6.084;2023-05-14T10:38:41;37.07;;;30.73;;
9188;SDS011;34313;50.780;6.084;2023-05-14T10:41:10;37.70;;;31.10;;
9188;SDS011;34313;50.780;6.084;2023-05-14T10:43:38;39.20;;;31.80;;
9188;SDS011;34313;50.780;6.084;2023-05-14T10:46:05;45.23;;;31.40;;
9188;SDS011;34313;50.780;6.084;2023-05-14T10:48:31;41.40;;;32.63;;
9188;SDS011;34313;50.780;6.084;2023-05-14T10:50:58;36.60;;;30.03;;
9188;SDS011;34313;50.780;6.084;2023-05-14T10:53:38;36.70;;;31.70;;
9188;SDS011;34313;50.780;6.084;2023-05-14T10:56:08;38.67;;;32.10;;
9188;SDS011;34313;50.780;6.084;2023-05-14T10:58:38;44.37;;;33.93;;
9188;SDS011;34313;50.780;6.084;2023-05-14T11:01:06;42.10;;;34.53;;
9188;SDS011;34313;50.780;6.084;2023-05-14T11:03:37;35.60;;;28.57;;
9188;SDS011;34313;50.780;6.084;2023-05-14T11:06:04;36.10;;;29.50;;
9188;SDS011;34313;50.780;6.084;2023-05-14T11:08:31;38.60;;;31.43;;
9188;SDS011;34313;50.780;6.084;2023-05-14T11:10:56;39.60;;;32.77;;
9188;SDS011;34313;50.780;6.084;2023-05-14T11:13:21;40.30;;;33.90;;
9188;SDS011;34313;50.780;6.084;2023-05-14T11:15:47;38.87;;;33.27;;
9188;SDS011;34313;50.780;6.084;2023-05-14T11:18:13;40.37;;;31.83;;
9188;SDS011;34313;50.780;6.084;2023-05-14T11:20:51;38.50;;;30.23;;
9188;SDS011;34313;50.780;6.084;2023-05-14T11:23:16;33.23;;;26.57;;
9188;SDS011;34313;50.780;6.084;2023-05-14T11:25:41;39.87;;;33.17;;
9188;SDS011;34313;50.780;6.084;2023-05-14T11:28:07;35.20;;;28.30;;
9188;SDS011;34313;50.780;6.084;2023-05-14T11:30:32;26.93;;;23.00;;
9188;SDS011;34313;50.780;6.084;2023-05-14T11:32:58;34.83;;;26.73;;
9188;SDS011;34313;50.780;6.084;2023-05-14T11:35:24;34.07;;;28.90;;
9188;SDS011;34313;50.780;6.084;2023-05-14T11:37:50;40.93;;;33.23;;
9188;SDS011;34313;50.780;6.084;2023-05-14T11:40:16;33.80;;;29.53;;
9188;SDS011;34313;50.780;6.084;2023-05-14T11:42:41;36.50;;;28.50;;
9188;SDS011;34313;50.780;6.084;2023-05-14T11:45:09;34.70;;;29.40;;
9188;SDS011;34313;50.780;6.084;2023-05-14T11:47:36;34.90;;;29.47;;
9188;SDS011;34313;50.780;6.084;2023-05-14T11:50:01;37.63;;;29.70;;
9188;SDS011;34313;50.780;6.084;2023-05-14T11:52:27;32.97;;;28.20;;
9188;SDS011;34313;50.780;6.084;2023-05-14T11:54:52;30.00;;;24.67;;
9188;SDS011;34313;50.780;6.084;2023-05-14T11:57:18;22.27;;;19.97;;
9188;SDS011;34313;50.780;6.084;2023-05-14T11:59:45;30.90;;;25.77;;
9188;SDS011;34313;50.780;6.084;2023-05-14T12:02:12;33.43;;;26.70;;
9188;SDS011;34313;50.780;6.084;2023-05-14T12:04:39;34.20;;;25.07;;
9188;SDS011;34313;50.780;6.084;2023-05-14T12:07:09;27.93;;;23.20;;
9188;SDS011;34313;50.780;6.084;2023-05-14T12:09:37;28.33;;;24.57;;
9188;SDS011;34313;50.780;6.084;2023-05-14T12:12:07;25.97;;;21.30;;
9188;SDS011;34313;50.780;6.084;2023-05-14T12:14:40;25.77;;;20.70;;
9188;SDS011;34313;50.780;6.084;2023-05-14T12:19:38;26.33;;;21.17;;
9188;SDS011;34313;50.780;6.084;2023-05-14T12:22:06;23.00;;;19.30;;
9188;SDS011;34313;50.780;6.084;2023-05-14T12:24:32;22.03;;;19.10;;
9188;SDS011;34313;50.780;6.084;2023-05-14T12:26:59;24.70;;;21.40;;
9188;SDS011;34313;50.780;6.084;2023-05-14T12:29:25;25.87;;;22.97;;
9188;SDS011;34313;50.780;6.084;2023-05-14T12:31:50;24.30;;;20.27;;
9188;SDS011;34313;50.780;6.084;2023-05-14T12:34:16;23.63;;;20.60;;
9188;SDS011;34313;50.780;6.084;2023-05-14T12:36:41;26.73;;;22.03;;
9188;SDS011;34313;50.780;6.084;2023-05-14T12:39:07;28.97;;;20.33;;
9188;SDS011;34313;50.780;6.084;2023-05-14T12:41:34;24.40;;;20.30;;
9188;SDS011;34313;50.780;6.084;2023-05-14T12:44:00;25.80;;;21.23;;
9188;SDS011;34313;50.780;6.084;2023-05-14T12:46:28;25.40;;;20.87;;
9188;SDS011;34313;50.780;6.084;2023-05-14T12:48:54;21.93;;;19.57;;
9188;SDS011;34313;50.780;6.084;2023-05-14T12:51:20;23.80;;;19.73;;
9188;SDS011;34313;50.780;6.084;2023-05-14T12:53:45;21.73;;;19.40;;
9188;SDS011;34313;50.780;6.084;2023-05-14T12:56:11;22.07;;;18.83;;
9188;SDS011;34313;50.780;6.084;2023-05-14T12:58:37;26.60;;;20.47;;
9188;SDS011;34313;50.780;6.084;2023-05-14T13:01:02;27.40;;;20.40;;
9188;SDS011;34313;50.780;6.084;2023-05-14T13:03:28;24.03;;;16.77;;
9188;SDS011;34313;50.780;6.084;2023-05-14T13:05:53;19.70;;;17.33;;
9188;SDS011;34313;50.780;6.084;2023-05-14T13:08:22;19.00;;;16.10;;
9188;SDS011;34313;50.780;6.084;2023-05-14T13:10:54;13.80;;;12.37;;
9188;SDS011;34313;50.780;6.084;2023-05-14T13:13:20;7.37;;;6.67;;
9188;SDS011;34313;50.780;6.084;2023-05-14T13:15:46;9.50;;;7.17;;
9188;SDS011;34313;50.780;6.084;2023-05-14T13:18:12;18.80;;;15.30;;
9188;SDS011;34313;50.780;6.084;2023-05-14T13:20:38;13.90;;;11.33;;
9188;SDS011;34313;50.780;6.084;2023-05-14T13:23:03;10.33;;;9.37;;
9188;SDS011;34313;50.780;6.084;2023-05-14T13:25:29;11.70;;;10.50;;
9188;SDS011;34313;50.780;6.084;2023-05-14T13:27:54;10.20;;;9.10;;
9188;SDS011;34313;50.780;6.084;2023-05-14T13:30:20;18.60;;;13.70;;
9188;SDS011;34313;50.780;6.084;2023-05-14T13:32:45;17.40;;;15.60;;
9188;SDS011;34313;50.780;6.084;2023-05-14T13:35:11;15.83;;;13.10;;
9188;SDS011;34313;50.780;6.084;2023-05-14T13:37:37;13.87;;;12.47;;
9188;SDS011;34313;50.780;6.084;2023-05-14T13:40:02;13.93;;;12.53;;
9188;SDS011;34313;50.780;6.084;2023-05-14T13:42:31;14.77;;;11.83;;
9188;SDS011;34313;50.780;6.084;2023-05-14T13:44:57;12.97;;;10.30;;
9188;SDS011;34313;50.780;6.084;2023-05-14T13:47:23;12.77;;;11.57;;
9188;SDS011;34313;50.780;6.084;2023-05-14T13:49:49;12.60;;;11.27;;
9188;SDS011;34313;50.780;6.084;2023-05-14T13:52:16;14.73;;;13.13;;
9188;SDS011;34313;50.780;6.084;2023-05-14T13:54:41;15.90;;;11.87;;
9188;SDS011;34313;50.780;6.084;2023-05-14T13:57:06;14.67;;;11.63;;
9188;SDS011;34313;50.780;6.084;2023-05-14T13:59:32;13.27;;;9.80;;
9188;SDS011;34313;50.780;6.084;2023-05-14T14:01:57;12.33;;;9.33;;
9188;SDS011;34313;50.780;6.084;2023-05-14T14:04:22;11.50;;;10.40;;
9188;SDS011;34313;50.780;6.084;2023-05-14T14:06:49;9.73;;;7.57;;
9188;SDS011;34313;50.780;6.084;2023-05-14T14:09:14;12.77;;;8.50;;
9188;SDS011;34313;50.780;6.084;2023-05-14T14:11:40;10.40;;;8.80;;
9188;SDS011;34313;50.780;6.084;2023-05-14T14:14:05;8.83;;;7.10;;
9188;SDS011;34313;50.780;6.084;2023-05-14T14:16:30;8.50;;;7.67;;
9188;SDS011;34313;50.780;6.084;2023-05-14T14:18:56;9.10;;;7.57;;
9188;SDS011;34313;50.780;6.084;2023-05-14T14:21:21;6.93;;;6.17;;
9188;SDS011;34313;50.780;6.084;2023-05-14T14:23:47;9.73;;;6.90;;
9188;SDS011;34313;50.780;6.084;2023-05-14T14:26:12;6.70;;;5.83;;
9188;SDS011;34313;50.780;6.084;2023-05-14T14:28:37;8.87;;;6.90;;
9188;SDS011;34313;50.780;6.084;2023-05-14T14:31:04;9.77;;;5.80;;
9188;SDS011;34313;50.780;6.084;2023-05-14T14:33:29;7.93;;;5.90;;
9188;SDS011;34313;50.780;6.084;2023-05-14T14:35:56;6.43;;;5.80;;
9188;SDS011;34313;50.780;6.084;2023-05-14T14:38:21;6.37;;;5.77;;
9188;SDS011;34313;50.780;6.084;2023-05-14T14:40:46;7.40;;;5.83;;